Marshall, TX

6:10 PM CDT on July 02, 2015 (GMT -0500)
Marshall, TX | | Change Station
CLOSE
Current Station
Personal Weather Station
Location: Marshall, TX
Elevation: 371 ft
Nearby Weather Stations

Elev 371 ft 32.53 °N, 94.30 °W | Updated 15 seconds ago

Clear
Clear
88.9 °F
Feels Like 98 °F
N
2.2
Wind Variable Wind from SSW

Today
High -- | Low -- °F
--% Chance of Precip.
Yesterday
High -- | Low -- °F
Precip. -- in
6:14 AM 8:28 PM
Full, 99% visible
Pressure 29.96 in
Visibility 7.0 miles
Clouds Clear
Heat Index 98 °F
Dew Point 74 °F
Humidity 62%
Rainfall 0.00 in
Snow Depth Not available.
UV 3 out of 12
Pollen 4.20 out of 12
Air Quality Not available.
Flu Activity Not available.
METAR KASL 022255Z AUTO 20007KT 7SM CLR 32/22 A2996 RMK AO1 T03170221

More Conditions Fewer Conditions

Pressure 29.96 in
Visibility 7.0 miles
Clouds Clear
Heat Index 98 °F
Dew Point 74 °F
Humidity 62%
Rainfall 0.00 in
Snow Depth Not available.
UV 3 out of 12
Pollen 4.20 out of 12
Air Quality Not available.
Flu Activity Not available.
METAR KASL 022255Z AUTO 20007KT 7SM CLR 32/22 A2996 RMK AO1 T03170221

More Conditions Fewer Conditions

10-Day Weather Forecast

×

Almanac

Astronomy

Jul. 02, 2015 Rise Set
Actual Time
Civil Twilight
Nautical Twilight
Astronomical Twilight
Moon
Length of Visible Light
Length of Day
Tomorrow will be .
, % of the Moon is Illuminated

Today's Extremes

State Highs State Lows

Community

WunderPhotos

Upload Photos

1,834,565 photos uploaded!

WunderBlogs® & News

Nearby

Air Quality

  Air Quality AQ Index Pollutant
Not available.

Snow Depth

Station Depth Elevation

Earthquake Activity

City Distance Mag. Time & Date
Minimum magnitude displayed is 2.5.

Coastal Water Temperatures

Place Temperature

Stations

Nearby Weather Stations

Station Location Temp. Windchill Dew Point Humidity Wind Precip. Elev Updated Type